createdAt,value
2023-04-02T00:06:32.504Z,99783.94
2023-04-02T00:16:34.683Z,99812.50
2023-04-02T00:26:40.893Z,99831.16
2023-04-02T00:36:44.056Z,99847.09
2023-04-02T00:46:49.709Z,99879.16
2023-04-02T00:56:54.452Z,99891.66
2023-04-02T01:06:58.375Z,99925.59
2023-04-02T01:17:48.818Z,99940.91
2023-04-02T01:27:56.567Z,99952.22
2023-04-02T01:38:13.760Z,99977.41
2023-04-02T01:48:34.217Z,99995.84
2023-04-02T01:58:38.029Z,100013.31
2023-04-02T02:08:56.833Z,100029.38
2023-04-02T02:19:01.638Z,100042.94
2023-04-02T02:29:06.824Z,100063.03
2023-04-02T02:39:24.722Z,100088.91
2023-04-02T02:49:37.865Z,100109.63
2023-04-02T02:59:41.695Z,100124.47
2023-04-02T03:09:50.975Z,100154.13
2023-04-02T03:19:58.201Z,100157.91
2023-04-02T03:30:26.591Z,100192.94
2023-04-02T03:40:38.278Z,100213.78
2023-04-02T03:51:04.387Z,100238.94
2023-04-02T04:01:18.712Z,100259.72
2023-04-02T04:11:33.604Z,100283.38
2023-04-02T04:21:39.523Z,100306.50
2023-04-02T04:32:13.147Z,100331.41
2023-04-02T04:42:22.813Z,100349.59
2023-04-02T04:52:34.084Z,100381.50
2023-04-02T05:03:17.696Z,100408.66
2023-04-02T05:13:41.132Z,100425.31
2023-04-02T05:24:28.162Z,100452.63
2023-04-02T05:34:33.981Z,100479.03
2023-04-02T05:44:42.609Z,100503.06
2023-04-02T05:54:56.332Z,100510.31
2023-04-02T06:05:20.334Z,100541.88
2023-04-02T06:15:23.585Z,100559.59
2023-04-02T06:25:38.319Z,100583.88
2023-04-02T06:35:46.859Z,100610.28
2023-04-02T06:45:53.405Z,100636.97
2023-04-02T06:56:32.062Z,100649.09
2023-04-02T07:06:35.553Z,100676.75
2023-04-02T07:16:40.425Z,100701.88
2023-04-02T07:26:43.193Z,100722.38
2023-04-02T07:36:46.317Z,100740.91
2023-04-02T07:46:48.801Z,100752.59
2023-04-02T07:56:51.164Z,100786.56
2023-04-02T08:06:53.574Z,100792.81
2023-04-02T08:16:56.190Z,100820.69
2023-04-02T08:26:58.948Z,100834.88
2023-04-02T08:37:01.800Z,100855.78
2023-04-02T08:47:06.690Z,100869.59
2023-04-02T08:57:23.795Z,100885.84
2023-04-02T09:07:26.949Z,100906.50
2023-04-02T09:17:36.873Z,100934.19
2023-04-02T09:27:49.157Z,100937.19
2023-04-02T09:38:19.972Z,100962.91
2023-04-02T09:48:32.422Z,100985.25
2023-04-02T09:58:34.494Z,100999.22
2023-04-02T10:08:38.930Z,101020.72
2023-04-02T10:19:16.966Z,101034.94
2023-04-02T10:29:21.309Z,101058.56
2023-04-02T10:39:39.942Z,101073.50
2023-04-02T10:49:51.252Z,101091.09
2023-04-02T10:59:57.852Z,101098.69
2023-04-02T11:10:00.884Z,101106.66
2023-04-02T11:21:01.445Z,101117.91
2023-04-02T11:31:04.793Z,101153.97
2023-04-02T11:41:06.960Z,101166.81
2023-04-02T11:51:22.306Z,101181.91
2023-04-02T12:01:45.413Z,101190.53
2023-04-02T12:11:48.135Z,101195.84
2023-04-02T12:21:53.016Z,101198.25
2023-04-02T12:31:58.931Z,101214.38
2023-04-02T12:42:01.368Z,101211.97
2023-04-02T12:52:18.485Z,101224.97
2023-04-02T13:02:25.404Z,101225.34
2023-04-02T13:12:27.468Z,101244.94
2023-04-02T13:22:31.607Z,101241.53
2023-04-02T13:32:33.847Z,101245.31
2023-04-02T13:42:36.663Z,101252.28
2023-04-02T13:52:38.819Z,101254.84
2023-04-02T14:02:44.417Z,101265.13
2023-04-02T14:12:57.272Z,101264.81
2023-04-02T14:23:26.002Z,101280.22
2023-04-02T14:33:34.055Z,101289.88
2023-04-02T14:43:52.220Z,101300.97
2023-04-02T14:54:18.476Z,101315.31
2023-04-02T15:04:26.626Z,101320.34
2023-04-02T15:14:35.581Z,101324.84
2023-04-02T15:24:51.814Z,101333.84
2023-04-02T15:35:08.176Z,101355.44
2023-04-02T15:45:27.488Z,101340.25
2023-04-02T15:55:46.295Z,101352.59
2023-04-02T16:06:17.393Z,101384.31
2023-04-02T16:16:23.298Z,101398.94
2023-04-02T16:26:39.259Z,101410.41
2023-04-02T16:36:53.700Z,101417.34
2023-04-02T16:47:18.575Z,101457.09
2023-04-02T16:57:30.418Z,101467.88
2023-04-02T17:07:47.581Z,101481.31
2023-04-02T17:17:50.220Z,101494.81
2023-04-02T17:27:55.841Z,101499.78
2023-04-02T17:38:24.455Z,101509.91
2023-04-02T17:48:35.503Z,101530.00
2023-04-02T17:59:11.354Z,101528.69
2023-04-02T18:09:32.677Z,101548.56
2023-04-02T18:19:50.965Z,101558.66
2023-04-02T18:30:03.498Z,101575.13
2023-04-02T18:40:26.992Z,101583.91
2023-04-02T18:50:35.021Z,101590.56
2023-04-02T19:00:43.659Z,101610.78
2023-04-02T19:10:51.412Z,101624.16
2023-04-02T19:21:01.344Z,101622.63
2023-04-02T19:31:16.173Z,101640.13
2023-04-02T19:41:31.300Z,101644.94
2023-04-02T19:51:34.512Z,101651.09
2023-04-02T20:01:36.804Z,101656.19
2023-04-02T20:11:40.207Z,101670.31
2023-04-02T20:21:42.404Z,101679.91
2023-04-02T20:31:44.592Z,101693.88
2023-04-02T20:41:47.258Z,101702.94
2023-04-02T20:51:49.627Z,101715.75
2023-04-02T21:01:54.941Z,101724.78
2023-04-02T21:11:57.276Z,101743.31
2023-04-02T21:21:59.451Z,101748.50
2023-04-02T21:32:08.328Z,101749.88
2023-04-02T21:42:16.859Z,101749.88
2023-04-02T21:52:20.593Z,101768.25
2023-04-02T22:02:24.007Z,101770.03
2023-04-02T22:12:28.899Z,101773.88
2023-04-02T22:22:33.098Z,101789.91
2023-04-02T22:32:36.839Z,101798.91
2023-04-02T22:42:39.118Z,101811.69
2023-04-02T22:52:44.758Z,101824.81
2023-04-02T23:02:47.060Z,101827.00
2023-04-02T23:12:49.714Z,101839.00
2023-04-02T23:22:53.112Z,101842.38
2023-04-02T23:32:55.428Z,101844.16
2023-04-02T23:42:57.770Z,101853.09
2023-04-02T23:53:01.004Z,101854.66
